createdAt,value
2016-05-29T00:00:44.213Z,958.46
2016-05-29T00:01:44.404Z,958.5
2016-05-29T00:02:44.235Z,958.53
2016-05-29T00:03:44.221Z,958.54
2016-05-29T00:04:44.224Z,958.52
2016-05-29T00:05:44.227Z,958.5
2016-05-29T00:06:44.230Z,958.51
2016-05-29T00:07:44.232Z,958.5
2016-05-29T00:08:44.235Z,958.49
2016-05-29T00:09:44.238Z,958.48
2016-05-29T00:10:44.240Z,958.53
2016-05-29T00:11:44.243Z,958.53
2016-05-29T00:12:44.245Z,958.55
2016-05-29T00:13:44.249Z,958.57
2016-05-29T00:14:44.251Z,958.59
2016-05-29T00:15:44.253Z,958.58
2016-05-29T00:16:44.241Z,958.59
2016-05-29T00:17:44.244Z,958.66
2016-05-29T00:18:44.247Z,958.65
2016-05-29T00:19:44.250Z,958.67
2016-05-29T00:20:44.267Z,958.72
2016-05-29T00:21:44.255Z,958.67
2016-05-29T00:22:44.258Z,958.68
2016-05-29T00:23:44.260Z,958.71
2016-05-29T00:24:44.263Z,958.67
2016-05-29T00:25:44.266Z,958.73
2016-05-29T00:26:44.268Z,958.73
2016-05-29T00:27:44.271Z,958.73
2016-05-29T00:28:44.273Z,958.75
2016-05-29T00:29:44.276Z,958.77
2016-05-29T00:30:44.279Z,958.78
2016-05-29T00:31:44.282Z,958.78
2016-05-29T00:32:44.284Z,958.81
2016-05-29T00:33:44.271Z,958.83
2016-05-29T00:34:44.290Z,958.91
2016-05-29T00:35:44.277Z,958.89
2016-05-29T00:36:44.279Z,958.93
2016-05-29T00:37:44.282Z,958.94
2016-05-29T00:38:44.550Z,958.9
2016-05-29T00:39:44.287Z,958.91
2016-05-29T00:40:44.290Z,958.86
2016-05-29T00:41:44.293Z,958.85
2016-05-29T00:42:44.295Z,958.84
2016-05-29T00:43:44.298Z,958.83
2016-05-29T00:44:44.301Z,958.82
2016-05-29T00:45:44.303Z,958.84
2016-05-29T00:46:44.306Z,958.82
2016-05-29T00:47:44.309Z,958.82
2016-05-29T00:48:44.311Z,958.75
2016-05-29T00:49:44.314Z,958.72
2016-05-29T00:50:44.317Z,958.72
2016-05-29T00:51:44.319Z,958.73
2016-05-29T00:52:44.323Z,958.71
2016-05-29T00:53:44.310Z,958.69
2016-05-29T00:54:44.313Z,958.73
2016-05-29T00:55:44.315Z,958.75
2016-05-29T00:56:44.318Z,958.76
2016-05-29T00:57:44.320Z,958.76
2016-05-29T00:58:44.324Z,958.82
2016-05-29T00:59:44.326Z,958.8
2016-05-29T01:00:44.328Z,958.83
2016-05-29T01:01:44.332Z,958.83
2016-05-29T01:02:44.334Z,958.86
2016-05-29T01:03:44.337Z,958.93
2016-05-29T01:04:44.339Z,958.95
2016-05-29T01:05:44.342Z,959
2016-05-29T01:06:44.345Z,959.05
2016-05-29T01:07:44.348Z,959.03
2016-05-29T01:08:44.350Z,959
2016-05-29T01:09:44.353Z,958.94
2016-05-29T01:10:44.355Z,958.87
2016-05-29T01:11:44.358Z,958.86
2016-05-29T01:12:44.361Z,958.83
2016-05-29T01:13:44.363Z,958.81
2016-05-29T01:14:44.350Z,958.82
2016-05-29T01:15:44.369Z,958.81
2016-05-29T01:16:44.356Z,958.8
2016-05-29T01:17:44.358Z,958.81
2016-05-29T01:18:44.361Z,958.82
2016-05-29T01:19:44.364Z,958.85
2016-05-29T01:20:45.053Z,958.89
2016-05-29T01:21:44.369Z,958.89
2016-05-29T01:22:44.372Z,958.88
2016-05-29T01:23:44.374Z,958.95
2016-05-29T01:24:44.377Z,959.03
2016-05-29T01:25:44.380Z,959.05
2016-05-29T01:26:44.383Z,959.1
2016-05-29T01:27:44.385Z,959.12
2016-05-29T01:28:44.388Z,959.15
2016-05-29T01:29:44.391Z,959.18
2016-05-29T01:30:44.394Z,959.24
2016-05-29T01:31:44.380Z,959.33
2016-05-29T01:32:44.399Z,959.36
2016-05-29T01:33:44.386Z,959.38
2016-05-29T01:34:44.388Z,959.52
2016-05-29T01:35:44.407Z,959.54
2016-05-29T01:36:44.394Z,959.58
2016-05-29T01:37:44.396Z,959.59
2016-05-29T01:38:44.399Z,959.64
2016-05-29T01:39:44.402Z,959.68
2016-05-29T01:40:44.404Z,959.66
2016-05-29T01:41:44.407Z,959.71
2016-05-29T01:42:44.410Z,959.68
2016-05-29T01:43:44.412Z,959.68
2016-05-29T01:44:44.415Z,959.73
2016-05-29T01:45:44.434Z,959.7
2016-05-29T01:46:44.421Z,959.71
2016-05-29T01:47:44.423Z,959.66
2016-05-29T01:48:44.426Z,959.6
2016-05-29T01:49:44.413Z,959.58
2016-05-29T01:50:44.431Z,959.56
2016-05-29T01:51:44.419Z,959.58
2016-05-29T01:52:44.421Z,959.63
2016-05-29T01:53:44.424Z,959.56
2016-05-29T01:54:44.427Z,959.48
2016-05-29T01:55:44.444Z,959.49
2016-05-29T01:56:44.432Z,959.53
2016-05-29T01:57:44.435Z,959.61
2016-05-29T01:58:44.437Z,959.58
2016-05-29T01:59:44.441Z,959.59
2016-05-29T02:00:44.443Z,959.5
2016-05-29T02:01:44.446Z,959.41
2016-05-29T02:02:44.448Z,959.33
2016-05-29T02:03:44.451Z,959.24
2016-05-29T02:04:44.454Z,959.24
2016-05-29T02:05:44.457Z,959.24
2016-05-29T02:06:44.444Z,959.23
2016-05-29T02:07:44.461Z,959.26
2016-05-29T02:08:44.449Z,959.29
2016-05-29T02:09:44.452Z,959.31
2016-05-29T02:10:44.454Z,959.33
2016-05-29T02:11:44.456Z,959.32
2016-05-29T02:12:44.476Z,959.34
2016-05-29T02:13:44.462Z,959.31
2016-05-29T02:14:44.465Z,959.23
2016-05-29T02:15:44.467Z,959.18
2016-05-29T02:16:44.470Z,959.12
2016-05-29T02:17:44.473Z,959.04
2016-05-29T02:18:44.476Z,958.97
2016-05-29T02:19:44.478Z,958.96
2016-05-29T02:20:44.715Z,958.86
2016-05-29T02:21:44.483Z,958.82
2016-05-29T02:22:44.486Z,958.77
2016-05-29T02:23:44.489Z,958.76
2016-05-29T02:24:44.475Z,958.7
2016-05-29T02:25:44.478Z,958.71
2016-05-29T02:26:44.481Z,958.74
2016-05-29T02:27:44.500Z,958.71
2016-05-29T02:28:44.486Z,958.65
2016-05-29T02:29:44.489Z,958.66
2016-05-29T02:30:44.492Z,958.63
2016-05-29T02:31:44.494Z,958.67
2016-05-29T02:32:44.497Z,958.69
2016-05-29T02:33:44.500Z,958.66
2016-05-29T02:34:44.503Z,958.58
2016-05-29T02:35:44.505Z,958.54
2016-05-29T02:36:44.508Z,958.54
2016-05-29T02:37:44.510Z,958.53
2016-05-29T02:38:44.513Z,958.47
2016-05-29T02:39:44.516Z,958.48
2016-05-29T02:40:44.503Z,958.43
2016-05-29T02:41:44.522Z,958.39
2016-05-29T02:42:44.509Z,958.34
2016-05-29T02:43:44.512Z,958.28
2016-05-29T02:44:44.514Z,958.2
2016-05-29T02:45:44.517Z,958.19
2016-05-29T02:46:44.520Z,958.18
2016-05-29T02:47:44.522Z,958.2
2016-05-29T02:48:44.526Z,958.19
2016-05-29T02:49:44.528Z,958.16
2016-05-29T02:50:44.671Z,958.15
2016-05-29T02:51:44.533Z,958.13
2016-05-29T02:52:44.535Z,958.13
2016-05-29T02:53:44.539Z,958.12
2016-05-29T02:54:44.541Z,958.04
2016-05-29T02:55:44.544Z,958.07
2016-05-29T02:56:44.546Z,958.07
2016-05-29T02:57:44.550Z,958.11
2016-05-29T02:58:44.536Z,958.12
2016-05-29T02:59:44.554Z,958.12
2016-05-29T03:00:44.558Z,958.14
2016-05-29T03:01:44.544Z,958.11
2016-05-29T03:02:44.547Z,958.14
2016-05-29T03:03:44.565Z,958.14
2016-05-29T03:04:44.552Z,958.1
2016-05-29T03:05:44.805Z,958.16
2016-05-29T03:06:44.557Z,958.12
2016-05-29T03:07:44.560Z,958.14
2016-05-29T03:08:44.563Z,958.16
2016-05-29T03:09:44.566Z,958.16
2016-05-29T03:10:44.568Z,958.16
2016-05-29T03:11:44.571Z,958.17
2016-05-29T03:12:44.559Z,958.17
2016-05-29T03:13:44.576Z,958.23
2016-05-29T03:14:44.564Z,958.26
2016-05-29T03:15:44.582Z,958.33
2016-05-29T03:16:44.585Z,958.35
2016-05-29T03:17:44.572Z,958.38
2016-05-29T03:18:44.574Z,958.38
2016-05-29T03:19:44.577Z,958.43
2016-05-29T03:20:44.626Z,958.42
2016-05-29T03:21:44.583Z,958.43
2016-05-29T03:22:44.585Z,958.4
2016-05-29T03:23:44.589Z,958.39
2016-05-29T03:24:44.591Z,958.38
2016-05-29T03:25:44.593Z,958.38
2016-05-29T03:26:44.597Z,958.42
2016-05-29T03:27:44.599Z,958.4
2016-05-29T03:28:44.602Z,958.39
2016-05-29T03:29:44.588Z,958.36
2016-05-29T03:30:44.591Z,958.33
2016-05-29T03:31:44.594Z,958.27
2016-05-29T03:32:44.596Z,958.25
2016-05-29T03:33:44.599Z,958.22
2016-05-29T03:34:44.602Z,958.2
2016-05-29T03:35:44.635Z,958.21
2016-05-29T03:36:44.607Z,958.18
2016-05-29T03:37:44.610Z,958.17
2016-05-29T03:38:44.613Z,958.18
2016-05-29T03:39:44.615Z,958.14
2016-05-29T03:40:44.618Z,958.17
2016-05-29T03:41:44.621Z,958.18
2016-05-29T03:42:44.623Z,958.18
2016-05-29T03:43:44.626Z,958.15
2016-05-29T03:44:44.629Z,958.17
2016-05-29T03:45:44.631Z,958.19
2016-05-29T03:46:44.618Z,958.19
2016-05-29T03:47:44.621Z,958.2
2016-05-29T03:48:44.639Z,958.21
2016-05-29T03:49:44.626Z,958.19
2016-05-29T03:50:44.629Z,958.18
2016-05-29T03:51:44.632Z,958.2
2016-05-29T03:52:44.634Z,958.22
2016-05-29T03:53:44.637Z,958.26
2016-05-29T03:54:44.640Z,958.24
2016-05-29T03:55:44.642Z,958.25
2016-05-29T03:56:44.645Z,958.23
2016-05-29T03:57:44.648Z,958.26
2016-05-29T03:58:44.635Z,958.23
2016-05-29T03:59:44.638Z,958.23
2016-05-29T04:00:44.655Z,958.25
2016-05-29T04:01:44.644Z,958.26
2016-05-29T04:02:44.661Z,958.29
2016-05-29T04:03:44.648Z,958.34
2016-05-29T04:04:44.652Z,958.36
2016-05-29T04:05:44.655Z,958.35
2016-05-29T04:06:44.657Z,958.35
2016-05-29T04:07:44.659Z,958.37
2016-05-29T04:08:44.663Z,958.41
2016-05-29T04:09:44.665Z,958.4
2016-05-29T04:10:44.667Z,958.46
2016-05-29T04:11:44.670Z,958.42
2016-05-29T04:12:44.673Z,958.45
2016-05-29T04:13:44.676Z,958.47
2016-05-29T04:14:44.662Z,958.45
2016-05-29T04:15:44.665Z,958.42
2016-05-29T04:16:44.668Z,958.42
2016-05-29T04:17:44.670Z,958.39
2016-05-29T04:18:44.673Z,958.46
2016-05-29T04:19:44.676Z,958.45
2016-05-29T04:20:44.679Z,958.48
2016-05-29T04:21:44.681Z,958.5
2016-05-29T04:22:44.684Z,958.47
2016-05-29T04:23:44.687Z,958.45
2016-05-29T04:24:44.689Z,958.41
2016-05-29T04:25:44.692Z,958.38
2016-05-29T04:26:44.694Z,958.39
2016-05-29T04:27:44.698Z,958.39
2016-05-29T04:28:44.700Z,958.39
2016-05-29T04:29:44.686Z,958.39
2016-05-29T04:30:44.689Z,958.41
2016-05-29T04:31:44.692Z,958.44
2016-05-29T04:32:44.695Z,958.42
2016-05-29T04:33:44.697Z,958.43
2016-05-29T04:34:44.701Z,958.49
2016-05-29T04:35:44.875Z,958.49
2016-05-29T04:36:44.706Z,958.55
2016-05-29T04:37:44.708Z,958.57
2016-05-29T04:38:44.710Z,958.58
2016-05-29T04:39:44.714Z,958.6
2016-05-29T04:40:44.701Z,958.62
2016-05-29T04:41:44.719Z,958.62
2016-05-29T04:42:44.721Z,958.6
2016-05-29T04:43:44.710Z,958.61
2016-05-29T04:44:44.727Z,958.59
2016-05-29T04:45:44.714Z,958.59
2016-05-29T04:46:44.733Z,958.61
2016-05-29T04:47:44.720Z,958.67
2016-05-29T04:48:44.723Z,958.63
2016-05-29T04:49:44.726Z,958.67
2016-05-29T04:50:44.728Z,958.7
2016-05-29T04:51:44.731Z,958.75
2016-05-29T04:52:44.733Z,958.73
2016-05-29T04:53:44.751Z,958.77
2016-05-29T04:54:44.739Z,958.78
2016-05-29T04:55:44.742Z,958.76
2016-05-29T04:56:44.744Z,958.74
2016-05-29T04:57:44.747Z,958.73
2016-05-29T04:58:44.750Z,958.67
2016-05-29T04:59:44.767Z,958.67
2016-05-29T05:00:44.755Z,958.65
2016-05-29T05:01:44.758Z,958.57
2016-05-29T05:02:44.761Z,958.54
2016-05-29T05:03:44.763Z,958.53
2016-05-29T05:04:44.766Z,958.5
2016-05-29T05:05:44.752Z,958.48
2016-05-29T05:06:44.771Z,958.5
2016-05-29T05:07:44.774Z,958.52
2016-05-29T05:08:44.776Z,958.54
2016-05-29T05:09:44.780Z,958.53
2016-05-29T05:10:44.782Z,958.52
2016-05-29T05:11:44.785Z,958.49
2016-05-29T05:12:44.771Z,958.52
2016-05-29T05:13:44.790Z,958.53
2016-05-29T05:14:44.793Z,958.53
2016-05-29T05:15:44.795Z,958.54
2016-05-29T05:16:44.799Z,958.57
2016-05-29T05:17:44.785Z,958.59
2016-05-29T05:18:44.804Z,958.56
2016-05-29T05:19:44.806Z,958.54
2016-05-29T05:20:44.792Z,958.58
2016-05-29T05:21:44.812Z,958.59
2016-05-29T05:22:44.814Z,958.57
2016-05-29T05:23:44.817Z,958.58
2016-05-29T05:24:44.819Z,958.6
2016-05-29T05:25:44.823Z,958.57
2016-05-29T05:26:44.825Z,958.56
2016-05-29T05:27:44.827Z,958.57
2016-05-29T05:28:44.831Z,958.57
2016-05-29T05:29:44.833Z,958.64
2016-05-29T05:30:44.836Z,958.61
2016-05-29T05:31:44.838Z,958.6
2016-05-29T05:32:44.841Z,958.65
2016-05-29T05:33:44.844Z,958.67
2016-05-29T05:34:44.846Z,958.63
2016-05-29T05:35:44.849Z,958.65
2016-05-29T05:36:44.852Z,958.67
2016-05-29T05:37:44.855Z,958.71
2016-05-29T05:38:44.857Z,958.71
2016-05-29T05:39:44.860Z,958.7
2016-05-29T05:40:44.863Z,958.68
2016-05-29T05:41:44.865Z,958.66
2016-05-29T05:42:44.868Z,958.6
2016-05-29T05:43:44.885Z,958.54
2016-05-29T05:44:44.873Z,958.54
2016-05-29T05:45:44.876Z,958.51
2016-05-29T05:46:44.879Z,958.5
2016-05-29T05:47:44.881Z,958.52
2016-05-29T05:48:44.884Z,958.49
2016-05-29T05:49:44.887Z,958.45
2016-05-29T05:50:44.904Z,958.45
2016-05-29T05:51:44.893Z,958.44
2016-05-29T05:52:44.895Z,958.43
2016-05-29T05:53:44.897Z,958.46
2016-05-29T05:54:44.901Z,958.48
2016-05-29T05:55:44.918Z,958.48
2016-05-29T05:56:44.920Z,958.49
2016-05-29T05:57:44.908Z,958.52
2016-05-29T05:58:44.911Z,958.51
2016-05-29T05:59:44.914Z,958.53
2016-05-29T06:00:44.916Z,958.53
2016-05-29T06:01:44.919Z,958.54
2016-05-29T06:02:44.936Z,958.48
2016-05-29T06:03:44.925Z,958.49
2016-05-29T06:04:44.942Z,958.49
2016-05-29T06:05:44.945Z,958.51
2016-05-29T06:06:44.932Z,958.49
2016-05-29T06:07:44.951Z,958.5
2016-05-29T06:08:44.953Z,958.47
2016-05-29T06:09:44.940Z,958.47
2016-05-29T06:10:44.943Z,958.5
2016-05-29T06:11:44.961Z,958.5
2016-05-29T06:12:44.964Z,958.51
2016-05-29T06:13:44.966Z,958.47
2016-05-29T06:14:44.969Z,958.49
2016-05-29T06:15:44.957Z,958.53
2016-05-29T06:16:44.974Z,958.52
2016-05-29T06:17:44.977Z,958.52
2016-05-29T06:18:44.965Z,958.5
2016-05-29T06:19:44.983Z,958.47
2016-05-29T06:20:44.970Z,958.49
2016-05-29T06:21:44.988Z,958.44
2016-05-29T06:22:44.990Z,958.45
2016-05-29T06:23:44.978Z,958.42
2016-05-29T06:24:44.981Z,958.4
2016-05-29T06:25:44.998Z,958.34
2016-05-29T06:26:44.986Z,958.34
2016-05-29T06:27:44.989Z,958.29
2016-05-29T06:28:44.992Z,958.29
2016-05-29T06:29:44.994Z,958.28
2016-05-29T06:30:45.012Z,958.23
2016-05-29T06:31:45.015Z,958.21
2016-05-29T06:32:45.018Z,958.19
2016-05-29T06:33:45.020Z,958.17
2016-05-29T06:34:45.022Z,958.15
2016-05-29T06:35:45.026Z,958.18
2016-05-29T06:36:45.013Z,958.18
2016-05-29T06:37:45.031Z,958.21
2016-05-29T06:38:45.033Z,958.22
2016-05-29T06:39:45.037Z,958.26
2016-05-29T06:40:45.039Z,958.28
2016-05-29T06:41:45.026Z,958.3
2016-05-29T06:42:45.045Z,958.34
2016-05-29T06:43:45.032Z,958.32
2016-05-29T06:44:45.049Z,958.29
2016-05-29T06:45:45.052Z,958.28
2016-05-29T06:46:45.056Z,958.25
2016-05-29T06:47:45.058Z,958.24
2016-05-29T06:48:45.060Z,958.23
2016-05-29T06:49:45.048Z,958.21
2016-05-29T06:50:45.050Z,958.23
2016-05-29T06:51:45.054Z,958.25
2016-05-29T06:52:45.056Z,958.26
2016-05-29T06:53:45.059Z,958.25
2016-05-29T06:54:45.062Z,958.24
2016-05-29T06:55:45.065Z,958.21
2016-05-29T06:56:45.067Z,958.2
2016-05-29T06:57:45.084Z,958.14
2016-05-29T06:58:45.104Z,958.18
2016-05-29T06:59:45.075Z,958.16
2016-05-29T07:00:45.078Z,958.08
2016-05-29T07:01:45.095Z,958.09
2016-05-29T07:02:45.083Z,958.1
2016-05-29T07:03:45.101Z,958.07
2016-05-29T07:04:45.088Z,958.07
2016-05-29T07:05:45.091Z,958.09
2016-05-29T07:06:45.109Z,958.1
2016-05-29T07:07:45.112Z,958.07
2016-05-29T07:08:45.099Z,958.09
2016-05-29T07:09:45.102Z,958.1
2016-05-29T07:10:45.105Z,958.09
2016-05-29T07:11:45.107Z,958.14
2016-05-29T07:12:45.110Z,958.13
2016-05-29T07:13:45.113Z,958.14
2016-05-29T07:14:45.130Z,958.15
2016-05-29T07:15:45.118Z,958.13
2016-05-29T07:16:45.136Z,958.16
2016-05-29T07:17:45.138Z,958.14
2016-05-29T07:18:45.141Z,958.16
2016-05-29T07:19:45.144Z,958.18
2016-05-29T07:20:45.147Z,958.17
2016-05-29T07:21:45.134Z,958.16
2016-05-29T07:22:45.152Z,958.1
2016-05-29T07:23:45.154Z,958.08
2016-05-29T07:24:45.157Z,958.05
2016-05-29T07:25:45.160Z,958
2016-05-29T07:26:45.163Z,958
2016-05-29T07:27:45.150Z,958.01
2016-05-29T07:28:45.168Z,957.98
2016-05-29T07:29:45.171Z,958.01
2016-05-29T07:30:45.173Z,958
2016-05-29T07:31:45.176Z,957.99
2016-05-29T07:32:45.179Z,957.99
2016-05-29T07:33:45.181Z,957.99
2016-05-29T07:34:45.185Z,958
2016-05-29T07:35:45.187Z,957.97
2016-05-29T07:36:45.190Z,957.92
2016-05-29T07:37:45.192Z,957.91
2016-05-29T07:38:45.194Z,957.92
2016-05-29T07:39:45.198Z,957.89
2016-05-29T07:40:45.200Z,957.9
2016-05-29T07:41:45.203Z,957.88
2016-05-29T07:42:45.205Z,957.87
2016-05-29T07:43:45.209Z,957.9
2016-05-29T07:44:45.211Z,957.86
2016-05-29T07:45:45.213Z,957.89
2016-05-29T07:46:45.217Z,957.92
2016-05-29T07:47:45.235Z,957.85
2016-05-29T07:48:45.222Z,957.83
2016-05-29T07:49:45.224Z,957.84
2016-05-29T07:50:45.227Z,957.79
2016-05-29T07:51:45.246Z,957.82
2016-05-29T07:52:45.248Z,957.82
2016-05-29T07:53:45.251Z,957.84
2016-05-29T07:54:45.254Z,957.84
2016-05-29T07:55:45.257Z,957.82
2016-05-29T07:56:45.259Z,957.78
2016-05-29T07:57:45.262Z,957.73
2016-05-29T07:58:45.265Z,957.7
2016-05-29T07:59:45.267Z,957.68
2016-05-29T08:00:45.270Z,957.69
2016-05-29T08:01:45.273Z,957.68
2016-05-29T08:02:45.276Z,957.65
2016-05-29T08:03:45.278Z,957.64
2016-05-29T08:04:45.280Z,957.65
2016-05-29T08:05:45.283Z,957.67
2016-05-29T08:06:45.302Z,957.69
2016-05-29T08:07:45.305Z,957.69
2016-05-29T08:08:45.307Z,957.64
2016-05-29T08:09:45.310Z,957.66
2016-05-29T08:10:45.313Z,957.6
2016-05-29T08:11:45.316Z,957.58
2016-05-29T08:12:48.224Z,957.57
2016-05-29T08:13:45.321Z,957.52
2016-05-29T08:14:45.323Z,957.51
2016-05-29T08:15:45.327Z,957.47
2016-05-29T08:16:45.329Z,957.46
2016-05-29T08:17:46.393Z,957.43
2016-05-29T08:18:45.350Z,957.39
2016-05-29T08:19:45.352Z,957.38
2016-05-29T08:20:45.355Z,957.36
2016-05-29T08:21:45.357Z,957.31
2016-05-29T08:22:47.908Z,957.31
2016-05-29T08:23:45.363Z,957.3
2016-05-29T08:24:45.366Z,957.3
2016-05-29T08:25:45.368Z,957.31
2016-05-29T08:26:45.371Z,957.27
2016-05-29T08:27:46.943Z,957.27
2016-05-29T08:28:45.437Z,957.27
2016-05-29T08:29:45.446Z,957.29
2016-05-29T08:30:45.486Z,957.27
2016-05-29T08:31:45.512Z,957.27
2016-05-29T08:32:46.788Z,957.31
2016-05-29T08:33:45.533Z,957.32
2016-05-29T08:34:45.544Z,957.35
2016-05-29T08:35:45.555Z,957.34
2016-05-29T08:36:45.566Z,957.36
2016-05-29T08:37:49.290Z,957.34
2016-05-29T08:38:45.780Z,957.41
2016-05-29T08:39:45.599Z,957.4
2016-05-29T08:40:45.605Z,957.36
2016-05-29T08:41:45.610Z,957.38
2016-05-29T08:42:47.395Z,957.33
2016-05-29T08:43:45.617Z,957.4
2016-05-29T08:44:45.636Z,957.41
2016-05-29T08:45:45.639Z,957.38
2016-05-29T08:46:45.642Z,957.4
2016-05-29T08:47:48.911Z,957.36
2016-05-29T08:48:45.649Z,957.3
2016-05-29T08:49:45.652Z,957.24
2016-05-29T08:50:45.655Z,957.23
2016-05-29T08:51:45.689Z,957.16
2016-05-29T08:52:45.692Z,957.14
2016-05-29T08:53:45.680Z,957.16
2016-05-29T08:54:45.698Z,957.13
2016-05-29T08:55:45.702Z,957.14
2016-05-29T08:56:45.704Z,957.12
2016-05-29T08:57:45.707Z,957.09
2016-05-29T08:58:45.710Z,957.09
2016-05-29T08:59:45.728Z,957.1
2016-05-29T09:00:45.731Z,957.1
2016-05-29T09:01:45.734Z,957.1
2016-05-29T09:02:46.143Z,957.06
2016-05-29T09:03:45.739Z,957.05
2016-05-29T09:04:45.758Z,957.02
2016-05-29T09:05:45.760Z,957
2016-05-29T09:06:46.247Z,957.01
2016-05-29T09:07:46.734Z,957.03
2016-05-29T09:08:45.784Z,957.01
2016-05-29T09:09:45.786Z,957.02
2016-05-29T09:10:45.789Z,957.06
2016-05-29T09:11:45.791Z,957.06
2016-05-29T09:12:49.248Z,957.02
2016-05-29T09:13:45.813Z,957.01
2016-05-29T09:14:45.816Z,957.02
2016-05-29T09:15:45.818Z,957.04
2016-05-29T09:16:45.821Z,957.03
2016-05-29T09:17:45.840Z,957.01
2016-05-29T09:18:45.842Z,957
2016-05-29T09:19:45.845Z,957
2016-05-29T09:20:45.863Z,956.95
2016-05-29T09:21:45.851Z,956.95
2016-05-29T09:22:49.212Z,956.95
2016-05-29T09:23:45.871Z,956.92
2016-05-29T09:24:45.890Z,956.9
2016-05-29T09:25:45.876Z,956.87
2016-05-29T09:26:45.879Z,956.87
2016-05-29T09:27:45.898Z,956.84
2016-05-29T09:28:45.900Z,956.88
2016-05-29T09:29:45.903Z,956.81
2016-05-29T09:30:45.906Z,956.83
2016-05-29T09:31:45.908Z,956.83
2016-05-29T09:32:45.911Z,956.82
2016-05-29T09:33:45.929Z,956.82
2016-05-29T09:34:45.932Z,956.79
2016-05-29T09:35:45.934Z,956.8
2016-05-29T09:36:45.937Z,956.78
2016-05-29T09:37:49.065Z,956.74
2016-05-29T09:38:45.942Z,956.8
2016-05-29T09:39:45.961Z,956.77
2016-05-29T09:40:45.963Z,956.78
2016-05-29T09:41:45.966Z,956.76
2016-05-29T09:42:45.969Z,956.78
2016-05-29T09:43:45.972Z,956.76
2016-05-29T09:44:45.990Z,956.77
2016-05-29T09:45:45.993Z,956.76
2016-05-29T09:46:45.980Z,956.74
2016-05-29T09:47:47.452Z,956.77
2016-05-29T09:48:46.001Z,956.76
2016-05-29T09:49:46.004Z,956.73
2016-05-29T09:50:46.210Z,956.76
2016-05-29T09:51:46.009Z,956.78
2016-05-29T09:52:46.059Z,956.74
2016-05-29T09:53:46.029Z,956.74
2016-05-29T09:54:46.033Z,956.78
2016-05-29T09:55:46.035Z,956.8
2016-05-29T09:56:46.054Z,956.85
2016-05-29T09:57:46.040Z,956.87
2016-05-29T09:58:46.043Z,956.86
2016-05-29T09:59:46.046Z,956.89
2016-05-29T10:00:46.048Z,956.89
2016-05-29T10:01:46.068Z,956.86
2016-05-29T10:02:46.070Z,956.87
2016-05-29T10:03:46.073Z,956.88
2016-05-29T10:04:46.075Z,956.85
2016-05-29T10:05:46.233Z,956.84
2016-05-29T10:06:46.815Z,956.82
2016-05-29T10:07:46.083Z,956.84
2016-05-29T10:08:46.086Z,956.9
2016-05-29T10:09:46.104Z,956.87
2016-05-29T10:10:46.108Z,956.83
2016-05-29T10:11:46.110Z,956.82
2016-05-29T10:12:46.113Z,956.8
2016-05-29T10:13:46.115Z,956.79
2016-05-29T10:14:46.118Z,956.8
2016-05-29T10:15:46.121Z,956.79
2016-05-29T10:16:46.138Z,956.78
2016-05-29T10:17:49.735Z,956.78
2016-05-29T10:18:46.143Z,956.78
2016-05-29T10:19:46.147Z,956.78
2016-05-29T10:20:46.149Z,956.81
2016-05-29T10:21:46.152Z,956.8
2016-05-29T10:22:47.998Z,956.84
2016-05-29T10:23:46.158Z,956.84
2016-05-29T10:24:46.160Z,956.84
2016-05-29T10:25:46.162Z,956.79
2016-05-29T10:26:46.166Z,956.78
2016-05-29T10:27:46.184Z,956.79
2016-05-29T10:28:46.187Z,956.72
2016-05-29T10:29:46.189Z,956.68
2016-05-29T10:30:46.192Z,956.69
2016-05-29T10:31:46.195Z,956.69
2016-05-29T10:32:50.666Z,956.68
2016-05-29T10:33:46.215Z,956.67
2016-05-29T10:34:46.218Z,956.68
2016-05-29T10:35:46.221Z,956.64
2016-05-29T10:36:46.223Z,956.69
2016-05-29T10:37:46.226Z,956.64
2016-05-29T10:38:46.228Z,956.58
2016-05-29T10:39:46.231Z,956.63
2016-05-29T10:40:46.234Z,956.6
2016-05-29T10:41:46.237Z,956.62
2016-05-29T10:42:48.411Z,956.58
2016-05-29T10:43:46.258Z,956.57
2016-05-29T10:44:46.245Z,956.6
2016-05-29T10:45:46.263Z,956.6
2016-05-29T10:46:46.266Z,956.59
2016-05-29T10:47:49.707Z,956.58
2016-05-29T10:48:46.272Z,956.59
2016-05-29T10:49:46.274Z,956.58
2016-05-29T10:50:46.277Z,956.56
2016-05-29T10:51:46.280Z,956.56
2016-05-29T10:52:46.282Z,956.56
2016-05-29T10:53:46.285Z,956.58
2016-05-29T10:54:46.304Z,956.57
2016-05-29T10:55:46.306Z,956.59
2016-05-29T10:56:46.309Z,956.63
2016-05-29T10:57:47.437Z,956.6
2016-05-29T10:58:46.314Z,956.62
2016-05-29T10:59:46.317Z,956.66
2016-05-29T11:00:46.335Z,956.67
2016-05-29T11:01:46.323Z,956.68
2016-05-29T11:02:46.340Z,956.69
2016-05-29T11:03:46.343Z,956.72
2016-05-29T11:04:46.346Z,956.72
2016-05-29T11:05:46.348Z,956.77
2016-05-29T11:06:46.351Z,956.74
2016-05-29T11:07:48.089Z,956.8
2016-05-29T11:08:46.356Z,956.74
2016-05-29T11:09:46.359Z,956.72
2016-05-29T11:10:46.362Z,956.71
2016-05-29T11:11:46.364Z,956.74
2016-05-29T11:12:46.367Z,956.69
2016-05-29T11:13:46.386Z,956.7
2016-05-29T11:14:46.388Z,956.74
2016-05-29T11:15:46.391Z,956.7
2016-05-29T11:16:46.487Z,956.73
2016-05-29T11:17:47.927Z,956.7
2016-05-29T11:18:46.399Z,956.68
2016-05-29T11:19:46.418Z,956.68
2016-05-29T11:20:46.420Z,956.64
2016-05-29T11:21:46.423Z,956.62
2016-05-29T11:22:49.566Z,956.67
2016-05-29T11:23:46.429Z,956.63
2016-05-29T11:24:46.431Z,956.65
2016-05-29T11:25:46.434Z,956.63
2016-05-29T11:26:46.436Z,956.63
2016-05-29T11:27:46.877Z,956.61
2016-05-29T11:28:46.442Z,956.64
2016-05-29T11:29:46.444Z,956.64
2016-05-29T11:30:46.448Z,956.65
2016-05-29T11:31:46.450Z,956.61
2016-05-29T11:32:46.984Z,956.62
2016-05-29T11:33:46.455Z,956.64
2016-05-29T11:34:46.473Z,956.58
2016-05-29T11:35:46.492Z,956.58
2016-05-29T11:36:46.464Z,956.59
2016-05-29T11:37:46.481Z,956.57
2016-05-29T11:38:46.484Z,956.57
2016-05-29T11:39:46.486Z,956.52
2016-05-29T11:40:46.490Z,956.49
2016-05-29T11:41:46.492Z,956.47
2016-05-29T11:42:48.073Z,956.44
2016-05-29T11:43:46.497Z,956.51
2016-05-29T11:44:46.516Z,956.48
2016-05-29T11:45:46.519Z,956.48
2016-05-29T11:46:46.521Z,956.46
2016-05-29T11:47:48.321Z,956.48
2016-05-29T11:48:46.527Z,956.44
2016-05-29T11:49:46.529Z,956.43
2016-05-29T11:50:47.172Z,956.43
2016-05-29T11:51:46.550Z,956.43
2016-05-29T11:52:46.709Z,956.35
2016-05-29T11:53:46.540Z,956.4
2016-05-29T11:54:46.543Z,956.41
2016-05-29T11:55:46.561Z,956.39
2016-05-29T11:56:46.548Z,956.38
2016-05-29T11:57:46.645Z,956.36
2016-05-29T11:58:46.569Z,956.37
2016-05-29T11:59:46.571Z,956.36
2016-05-29T12:00:46.574Z,956.31
2016-05-29T12:01:46.577Z,956.34
2016-05-29T12:02:47.017Z,956.32
2016-05-29T12:03:46.582Z,956.33
2016-05-29T12:04:46.601Z,956.3
2016-05-29T12:05:46.604Z,956.3
2016-05-29T12:06:46.590Z,956.31
2016-05-29T12:07:46.609Z,956.31
2016-05-29T12:08:46.612Z,956.3
2016-05-29T12:09:46.614Z,956.28
2016-05-29T12:10:46.617Z,956.28
2016-05-29T12:11:46.636Z,956.29
2016-05-29T12:12:46.622Z,956.26
2016-05-29T12:13:46.625Z,956.21
2016-05-29T12:14:46.644Z,956.23
2016-05-29T12:15:46.647Z,956.23
2016-05-29T12:16:46.649Z,956.2
2016-05-29T12:17:48.527Z,956.22
2016-05-29T12:18:46.654Z,956.18
2016-05-29T12:19:46.672Z,956.16
2016-05-29T12:20:46.660Z,956.17
2016-05-29T12:21:46.663Z,956.13
2016-05-29T12:22:46.993Z,956.16
2016-05-29T12:23:46.668Z,956.16
2016-05-29T12:24:46.670Z,956.16
2016-05-29T12:25:46.689Z,956.17
2016-05-29T12:26:46.691Z,956.18
2016-05-29T12:27:46.896Z,956.22
2016-05-29T12:28:46.696Z,956.23
2016-05-29T12:29:46.699Z,956.26
2016-05-29T12:30:46.702Z,956.27
2016-05-29T12:31:46.705Z,956.27